sensor_id;sensor_type;location;lat;lon;timestamp;temperature;humidity
64987;DHT22;67903;52.108;9.358;2023-04-25T00:02:36;7.00;75.50
64987;DHT22;67903;52.108;9.358;2023-04-25T00:05:23;7.00;75.40
64987;DHT22;67903;52.108;9.358;2023-04-25T00:08:11;7.00;75.90
64987;DHT22;67903;52.108;9.358;2023-04-25T00:10:58;6.90;75.80
64987;DHT22;67903;52.108;9.358;2023-04-25T00:13:46;6.90;75.90
64987;DHT22;67903;52.108;9.358;2023-04-25T00:16:33;7.00;75.70
64987;DHT22;67903;52.108;9.358;2023-04-25T00:19:22;7.00;76.00
64987;DHT22;67903;52.108;9.358;2023-04-25T00:22:09;6.90;78.30
64987;DHT22;67903;52.108;9.358;2023-04-25T00:24:56;6.80;78.00
64987;DHT22;67903;52.108;9.358;2023-04-25T00:27:44;6.80;78.20
64987;DHT22;67903;52.108;9.358;2023-04-25T00:30:32;6.80;78.30
64987;DHT22;67903;52.108;9.358;2023-04-25T00:33:19;6.80;78.10
64987;DHT22;67903;52.108;9.358;2023-04-25T00:36:06;6.70;78.20
64987;DHT22;67903;52.108;9.358;2023-04-25T00:38:53;6.70;78.30
64987;DHT22;67903;52.108;9.358;2023-04-25T00:41:41;6.70;78.40
64987;DHT22;67903;52.108;9.358;2023-04-25T00:44:30;6.70;77.50
64987;DHT22;67903;52.108;9.358;2023-04-25T00:47:19;6.70;78.30
64987;DHT22;67903;52.108;9.358;2023-04-25T00:50:07;6.70;78.10
64987;DHT22;67903;52.108;9.358;2023-04-25T00:52:54;6.70;78.20
64987;DHT22;67903;52.108;9.358;2023-04-25T00:55:41;6.70;77.10
64987;DHT22;67903;52.108;9.358;2023-04-25T00:58:29;6.70;77.10
64987;DHT22;67903;52.108;9.358;2023-04-25T01:01:16;6.60;77.90
64987;DHT22;67903;52.108;9.358;2023-04-25T01:04:03;6.60;78.20
64987;DHT22;67903;52.108;9.358;2023-04-25T01:06:51;6.60;78.30
64987;DHT22;67903;52.108;9.358;2023-04-25T01:09:38;6.60;77.80
64987;DHT22;67903;52.108;9.358;2023-04-25T01:12:26;6.70;77.60
64987;DHT22;67903;52.108;9.358;2023-04-25T01:15:13;6.70;77.50
64987;DHT22;67903;52.108;9.358;2023-04-25T01:18:00;6.70;77.30
64987;DHT22;67903;52.108;9.358;2023-04-25T01:20:50;6.70;77.20
64987;DHT22;67903;52.108;9.358;2023-04-25T01:23:39;6.60;77.90
64987;DHT22;67903;52.108;9.358;2023-04-25T01:26:27;6.70;77.90
64987;DHT22;67903;52.108;9.358;2023-04-25T01:29:15;6.70;77.50
64987;DHT22;67903;52.108;9.358;2023-04-25T01:32:02;6.70;77.80
64987;DHT22;67903;52.108;9.358;2023-04-25T01:34:50;6.70;77.80
64987;DHT22;67903;52.108;9.358;2023-04-25T01:37:40;6.70;78.40
64987;DHT22;67903;52.108;9.358;2023-04-25T01:40:29;6.60;79.20
64987;DHT22;67903;52.108;9.358;2023-04-25T01:43:17;6.60;79.40
64987;DHT22;67903;52.108;9.358;2023-04-25T01:46:04;6.50;80.00
64987;DHT22;67903;52.108;9.358;2023-04-25T01:48:52;6.50;79.80
64987;DHT22;67903;52.108;9.358;2023-04-25T01:51:39;6.50;80.00
64987;DHT22;67903;52.108;9.358;2023-04-25T01:54:27;6.50;80.10
64987;DHT22;67903;52.108;9.358;2023-04-25T01:57:14;6.40;80.20
64987;DHT22;67903;52.108;9.358;2023-04-25T02:00:05;6.40;80.70
64987;DHT22;67903;52.108;9.358;2023-04-25T02:02:59;6.40;82.60
64987;DHT22;67903;52.108;9.358;2023-04-25T02:05:50;6.30;84.00
64987;DHT22;67903;52.108;9.358;2023-04-25T02:08:38;6.20;83.60
64987;DHT22;67903;52.108;9.358;2023-04-25T02:11:25;6.20;83.50
64987;DHT22;67903;52.108;9.358;2023-04-25T02:14:27;6.10;85.50
64987;DHT22;67903;52.108;9.358;2023-04-25T02:17:23;6.20;85.20
64987;DHT22;67903;52.108;9.358;2023-04-25T02:20:11;6.10;86.50
64987;DHT22;67903;52.108;9.358;2023-04-25T02:22:59;5.90;88.50
64987;DHT22;67903;52.108;9.358;2023-04-25T02:25:47;5.80;91.60
64987;DHT22;67903;52.108;9.358;2023-04-25T02:28:35;5.80;92.20
64987;DHT22;67903;52.108;9.358;2023-04-25T02:31:24;5.70;92.80
64987;DHT22;67903;52.108;9.358;2023-04-25T02:34:11;5.70;93.00
64987;DHT22;67903;52.108;9.358;2023-04-25T02:36:58;5.80;92.80
64987;DHT22;67903;52.108;9.358;2023-04-25T02:39:45;5.90;92.40
64987;DHT22;67903;52.108;9.358;2023-04-25T02:42:32;5.80;92.70
64987;DHT22;67903;52.108;9.358;2023-04-25T02:45:19;5.80;93.00
64987;DHT22;67903;52.108;9.358;2023-04-25T02:48:07;5.70;93.20
64987;DHT22;67903;52.108;9.358;2023-04-25T02:50:54;5.70;92.50
64987;DHT22;67903;52.108;9.358;2023-04-25T02:53:41;5.60;92.30
64987;DHT22;67903;52.108;9.358;2023-04-25T02:56:29;5.50;92.30
64987;DHT22;67903;52.108;9.358;2023-04-25T02:59:16;5.50;92.30
64987;DHT22;67903;52.108;9.358;2023-04-25T03:02:04;5.40;92.40
64987;DHT22;67903;52.108;9.358;2023-04-25T03:04:51;5.40;92.20
64987;DHT22;67903;52.108;9.358;2023-04-25T03:07:38;5.30;92.10
64987;DHT22;67903;52.108;9.358;2023-04-25T03:10:26;5.40;92.00
64987;DHT22;67903;52.108;9.358;2023-04-25T03:13:15;5.40;91.70
64987;DHT22;67903;52.108;9.358;2023-04-25T03:16:03;5.40;91.80
64987;DHT22;67903;52.108;9.358;2023-04-25T03:18:50;5.40;91.70
64987;DHT22;67903;52.108;9.358;2023-04-25T03:21:38;5.30;91.80
64987;DHT22;67903;52.108;9.358;2023-04-25T03:24:25;5.40;92.00
64987;DHT22;67903;52.108;9.358;2023-04-25T03:27:13;5.30;91.90
64987;DHT22;67903;52.108;9.358;2023-04-25T03:30:00;5.40;92.00
64987;DHT22;67903;52.108;9.358;2023-04-25T03:32:47;5.40;91.80
64987;DHT22;67903;52.108;9.358;2023-04-25T03:35:36;5.40;91.60
64987;DHT22;67903;52.108;9.358;2023-04-25T03:38:23;5.50;91.60
64987;DHT22;67903;52.108;9.358;2023-04-25T03:41:11;5.40;91.40
64987;DHT22;67903;52.108;9.358;2023-04-25T03:44:02;5.30;91.20
64987;DHT22;67903;52.108;9.358;2023-04-25T03:46:49;5.30;91.50
64987;DHT22;67903;52.108;9.358;2023-04-25T03:49:36;5.50;90.70
64987;DHT22;67903;52.108;9.358;2023-04-25T03:52:25;5.50;86.30
64987;DHT22;67903;52.108;9.358;2023-04-25T03:55:13;5.30;86.80
64987;DHT22;67903;52.108;9.358;2023-04-25T03:58:00;5.40;86.00
64987;DHT22;67903;52.108;9.358;2023-04-25T04:00:47;5.30;86.30
64987;DHT22;67903;52.108;9.358;2023-04-25T04:03:35;5.40;86.40
64987;DHT22;67903;52.108;9.358;2023-04-25T04:06:24;5.50;86.50
64987;DHT22;67903;52.108;9.358;2023-04-25T04:09:17;5.50;86.50
64987;DHT22;67903;52.108;9.358;2023-04-25T04:12:06;5.50;85.50
64987;DHT22;67903;52.108;9.358;2023-04-25T04:14:54;5.50;86.30
64987;DHT22;67903;52.108;9.358;2023-04-25T04:17:41;5.60;85.70
64987;DHT22;67903;52.108;9.358;2023-04-25T04:20:29;5.50;86.10
64987;DHT22;67903;52.108;9.358;2023-04-25T04:23:20;5.60;85.80
64987;DHT22;67903;52.108;9.358;2023-04-25T04:26:08;5.70;85.20
64987;DHT22;67903;52.108;9.358;2023-04-25T04:29:14;5.70;85.50
64987;DHT22;67903;52.108;9.358;2023-04-25T04:32:18;5.70;85.50
64987;DHT22;67903;52.108;9.358;2023-04-25T04:35:05;5.70;85.70
64987;DHT22;67903;52.108;9.358;2023-04-25T04:37:53;5.70;85.30
64987;DHT22;67903;52.108;9.358;2023-04-25T04:40:43;5.60;85.40
64987;DHT22;67903;52.108;9.358;2023-04-25T04:43:35;5.70;84.80
64987;DHT22;67903;52.108;9.358;2023-04-25T04:46:42;5.70;83.10
64987;DHT22;67903;52.108;9.358;2023-04-25T04:49:58;5.70;83.20
64987;DHT22;67903;52.108;9.358;2023-04-25T04:53:04;5.70;83.20
64987;DHT22;67903;52.108;9.358;2023-04-25T04:55:57;5.70;83.90
64987;DHT22;67903;52.108;9.358;2023-04-25T04:59:03;5.60;84.30
64987;DHT22;67903;52.108;9.358;2023-04-25T05:02:00;5.60;84.30
64987;DHT22;67903;52.108;9.358;2023-04-25T05:05:06;5.70;84.00
64987;DHT22;67903;52.108;9.358;2023-04-25T05:08:32;5.60;84.40
64987;DHT22;67903;52.108;9.358;2023-04-25T05:11:51;5.60;84.40
64987;DHT22;67903;52.108;9.358;2023-04-25T05:14:48;5.70;83.70
64987;DHT22;67903;52.108;9.358;2023-04-25T05:18:02;5.70;83.80
64987;DHT22;67903;52.108;9.358;2023-04-25T05:21:07;5.60;83.60
64987;DHT22;67903;52.108;9.358;2023-04-25T05:24:01;5.60;84.00
64987;DHT22;67903;52.108;9.358;2023-04-25T05:27:18;5.70;83.40
64987;DHT22;67903;52.108;9.358;2023-04-25T05:30:25;5.90;82.40
64987;DHT22;67903;52.108;9.358;2023-04-25T05:33:22;5.90;82.00
64987;DHT22;67903;52.108;9.358;2023-04-25T05:36:10;5.90;81.80
64987;DHT22;67903;52.108;9.358;2023-04-25T05:38:57;6.00;81.10
64987;DHT22;67903;52.108;9.358;2023-04-25T05:42:05;6.10;79.90
64987;DHT22;67903;52.108;9.358;2023-04-25T05:45:11;6.10;80.00
64987;DHT22;67903;52.108;9.358;2023-04-25T05:48:09;6.10;79.40
64987;DHT22;67903;52.108;9.358;2023-04-25T05:51:14;6.00;80.10
64987;DHT22;67903;52.108;9.358;2023-04-25T05:54:25;6.10;79.20
64987;DHT22;67903;52.108;9.358;2023-04-25T05:57:25;6.20;78.70
64987;DHT22;67903;52.108;9.358;2023-04-25T06:00:14;6.20;76.60
64987;DHT22;67903;52.108;9.358;2023-04-25T06:03:04;6.20;77.80
64987;DHT22;67903;52.108;9.358;2023-04-25T06:05:52;6.20;77.70
64987;DHT22;67903;52.108;9.358;2023-04-25T06:08:40;6.30;77.30
64987;DHT22;67903;52.108;9.358;2023-04-25T06:11:30;6.30;77.40
64987;DHT22;67903;52.108;9.358;2023-04-25T06:14:17;6.40;78.10
64987;DHT22;67903;52.108;9.358;2023-04-25T06:17:08;6.50;78.70
64987;DHT22;67903;52.108;9.358;2023-04-25T06:19:55;6.50;78.60
64987;DHT22;67903;52.108;9.358;2023-04-25T06:22:43;6.60;78.10
64987;DHT22;67903;52.108;9.358;2023-04-25T06:25:30;6.60;77.60
64987;DHT22;67903;52.108;9.358;2023-04-25T06:28:17;6.60;76.90
64987;DHT22;67903;52.108;9.358;2023-04-25T06:31:04;6.60;76.40
64987;DHT22;67903;52.108;9.358;2023-04-25T06:33:52;6.60;75.70
64987;DHT22;67903;52.108;9.358;2023-04-25T06:36:43;6.60;75.80
64987;DHT22;67903;52.108;9.358;2023-04-25T06:39:34;6.70;76.30
64987;DHT22;67903;52.108;9.358;2023-04-25T06:42:24;6.80;75.80
64987;DHT22;67903;52.108;9.358;2023-04-25T06:45:16;6.70;75.10
64987;DHT22;67903;52.108;9.358;2023-04-25T06:48:04;6.80;74.70
64987;DHT22;67903;52.108;9.358;2023-04-25T06:50:51;7.00;73.80
64987;DHT22;67903;52.108;9.358;2023-04-25T06:53:39;7.10;73.10
64987;DHT22;67903;52.108;9.358;2023-04-25T06:56:30;7.20;72.10
64987;DHT22;67903;52.108;9.358;2023-04-25T06:59:23;7.20;71.90
64987;DHT22;67903;52.108;9.358;2023-04-25T07:02:11;7.20;71.10
64987;DHT22;67903;52.108;9.358;2023-04-25T07:04:58;7.20;69.40
64987;DHT22;67903;52.108;9.358;2023-04-25T07:07:47;7.20;69.20
64987;DHT22;67903;52.108;9.358;2023-04-25T07:10:34;7.20;69.60
64987;DHT22;67903;52.108;9.358;2023-04-25T07:13:22;7.20;70.20
64987;DHT22;67903;52.108;9.358;2023-04-25T07:16:09;7.00;70.00
64987;DHT22;67903;52.108;9.358;2023-04-25T07:18:56;7.00;70.40
64987;DHT22;67903;52.108;9.358;2023-04-25T07:21:44;7.00;70.70
64987;DHT22;67903;52.108;9.358;2023-04-25T07:24:31;7.00;71.10
64987;DHT22;67903;52.108;9.358;2023-04-25T07:27:19;7.00;69.00
64987;DHT22;67903;52.108;9.358;2023-04-25T07:30:14;6.90;67.90
64987;DHT22;67903;52.108;9.358;2023-04-25T07:33:01;6.90;67.90
64987;DHT22;67903;52.108;9.358;2023-04-25T07:35:48;7.00;68.10
64987;DHT22;67903;52.108;9.358;2023-04-25T07:38:36;7.00;66.90
64987;DHT22;67903;52.108;9.358;2023-04-25T07:41:23;7.00;67.90
64987;DHT22;67903;52.108;9.358;2023-04-25T07:44:11;7.20;67.80
64987;DHT22;67903;52.108;9.358;2023-04-25T07:46:59;7.20;67.80
64987;DHT22;67903;52.108;9.358;2023-04-25T07:49:50;7.20;66.50
64987;DHT22;67903;52.108;9.358;2023-04-25T07:52:37;7.50;67.10
64987;DHT22;67903;52.108;9.358;2023-04-25T07:55:37;7.70;66.90
64987;DHT22;67903;52.108;9.358;2023-04-25T07:58:33;7.80;64.80
64987;DHT22;67903;52.108;9.358;2023-04-25T08:01:23;7.60;65.20
64987;DHT22;67903;52.108;9.358;2023-04-25T08:04:17;7.80;65.20
64987;DHT22;67903;52.108;9.358;2023-04-25T08:07:18;7.70;64.80
64987;DHT22;67903;52.108;9.358;2023-04-25T08:10:11;7.80;64.20
64987;DHT22;67903;52.108;9.358;2023-04-25T08:12:59;7.70;64.30
64987;DHT22;67903;52.108;9.358;2023-04-25T08:15:46;8.00;64.00
64987;DHT22;67903;52.108;9.358;2023-04-25T08:18:34;7.90;62.40
64987;DHT22;67903;52.108;9.358;2023-04-25T08:21:21;8.00;63.20
64987;DHT22;67903;52.108;9.358;2023-04-25T08:24:09;8.10;61.60
64987;DHT22;67903;52.108;9.358;2023-04-25T08:26:58;8.10;61.10
64987;DHT22;67903;52.108;9.358;2023-04-25T08:29:47;8.10;61.90
64987;DHT22;67903;52.108;9.358;2023-04-25T08:32:35;8.10;61.70
64987;DHT22;67903;52.108;9.358;2023-04-25T08:35:54;8.00;59.50
64987;DHT22;67903;52.108;9.358;2023-04-25T08:38:41;7.80;59.00
64987;DHT22;67903;52.108;9.358;2023-04-25T08:41:30;7.80;60.00
64987;DHT22;67903;52.108;9.358;2023-04-25T08:44:17;7.70;59.10
64987;DHT22;67903;52.108;9.358;2023-04-25T08:47:06;7.60;59.90
64987;DHT22;67903;52.108;9.358;2023-04-25T08:50:03;7.50;59.80
64987;DHT22;67903;52.108;9.358;2023-04-25T08:52:53;7.60;60.40
64987;DHT22;67903;52.108;9.358;2023-04-25T08:55:41;7.80;60.40
64987;DHT22;67903;52.108;9.358;2023-04-25T08:58:30;7.80;60.10
64987;DHT22;67903;52.108;9.358;2023-04-25T09:01:18;8.00;61.10
64987;DHT22;67903;52.108;9.358;2023-04-25T09:04:12;8.10;60.90
64987;DHT22;67903;52.108;9.358;2023-04-25T09:07:00;8.30;61.00
64987;DHT22;67903;52.108;9.358;2023-04-25T09:09:48;8.40;59.10
64987;DHT22;67903;52.108;9.358;2023-04-25T09:12:38;8.20;59.40
64987;DHT22;67903;52.108;9.358;2023-04-25T09:15:27;8.00;60.20
64987;DHT22;67903;52.108;9.358;2023-04-25T09:18:35;8.00;59.30
64987;DHT22;67903;52.108;9.358;2023-04-25T09:21:22;8.00;59.70
64987;DHT22;67903;52.108;9.358;2023-04-25T09:24:10;8.00;58.00
64987;DHT22;67903;52.108;9.358;2023-04-25T09:26:57;8.00;57.70
64987;DHT22;67903;52.108;9.358;2023-04-25T09:29:44;7.90;57.90
64987;DHT22;67903;52.108;9.358;2023-04-25T09:32:32;8.00;58.20
64987;DHT22;67903;52.108;9.358;2023-04-25T09:35:24;8.10;58.60
64987;DHT22;67903;52.108;9.358;2023-04-25T09:38:14;8.20;58.70
64987;DHT22;67903;52.108;9.358;2023-04-25T09:41:11;8.20;58.60
64987;DHT22;67903;52.108;9.358;2023-04-25T09:44:03;8.20;59.00
64987;DHT22;67903;52.108;9.358;2023-04-25T09:46:57;8.60;58.00
64987;DHT22;67903;52.108;9.358;2023-04-25T09:49:46;8.70;56.70
64987;DHT22;67903;52.108;9.358;2023-04-25T09:52:34;8.70;57.10
64987;DHT22;67903;52.108;9.358;2023-04-25T09:55:34;8.60;55.80
64987;DHT22;67903;52.108;9.358;2023-04-25T09:58:24;8.50;56.00
64987;DHT22;67903;52.108;9.358;2023-04-25T10:01:11;8.50;57.50
64987;DHT22;67903;52.108;9.358;2023-04-25T10:04:13;8.40;55.00
64987;DHT22;67903;52.108;9.358;2023-04-25T10:07:09;8.50;54.50
64987;DHT22;67903;52.108;9.358;2023-04-25T10:10:03;8.60;54.70
64987;DHT22;67903;52.108;9.358;2023-04-25T10:12:51;8.60;54.30
64987;DHT22;67903;52.108;9.358;2023-04-25T10:15:39;8.60;53.80
64987;DHT22;67903;52.108;9.358;2023-04-25T10:18:28;8.60;54.10
64987;DHT22;67903;52.108;9.358;2023-04-25T10:21:16;8.60;53.90
64987;DHT22;67903;52.108;9.358;2023-04-25T10:24:03;8.60;55.00
64987;DHT22;67903;52.108;9.358;2023-04-25T10:26:51;8.50;55.60
64987;DHT22;67903;52.108;9.358;2023-04-25T10:29:41;8.50;55.80
64987;DHT22;67903;52.108;9.358;2023-04-25T10:32:33;8.60;56.60
64987;DHT22;67903;52.108;9.358;2023-04-25T10:35:28;8.60;55.80
64987;DHT22;67903;52.108;9.358;2023-04-25T10:38:15;8.80;56.50
64987;DHT22;67903;52.108;9.358;2023-04-25T10:41:07;8.60;56.40
64987;DHT22;67903;52.108;9.358;2023-04-25T10:44:00;8.30;54.20
64987;DHT22;67903;52.108;9.358;2023-04-25T10:46:48;8.30;53.90
64987;DHT22;67903;52.108;9.358;2023-04-25T10:49:42;8.40;51.80
64987;DHT22;67903;52.108;9.358;2023-04-25T10:52:29;8.40;48.70
64987;DHT22;67903;52.108;9.358;2023-04-25T10:55:17;8.50;49.70
64987;DHT22;67903;52.108;9.358;2023-04-25T10:58:04;8.70;50.10
64987;DHT22;67903;52.108;9.358;2023-04-25T11:00:51;9.00;50.10
64987;DHT22;67903;52.108;9.358;2023-04-25T11:03:43;9.20;49.90
64987;DHT22;67903;52.108;9.358;2023-04-25T11:09:41;9.50;50.20
64987;DHT22;67903;52.108;9.358;2023-04-25T11:12:30;9.50;50.70
64987;DHT22;67903;52.108;9.358;2023-04-25T11:15:18;9.80;50.80
64987;DHT22;67903;52.108;9.358;2023-04-25T11:18:05;9.70;47.30
64987;DHT22;67903;52.108;9.358;2023-04-25T11:20:55;9.90;47.60
64987;DHT22;67903;52.108;9.358;2023-04-25T11:23:46;9.80;49.10
64987;DHT22;67903;52.108;9.358;2023-04-25T11:26:33;9.80;47.90
64987;DHT22;67903;52.108;9.358;2023-04-25T11:29:26;9.70;48.30
64987;DHT22;67903;52.108;9.358;2023-04-25T11:32:17;9.70;48.20
64987;DHT22;67903;52.108;9.358;2023-04-25T11:35:07;9.80;48.00
64987;DHT22;67903;52.108;9.358;2023-04-25T11:37:55;9.70;48.30
64987;DHT22;67903;52.108;9.358;2023-04-25T11:40:42;9.70;49.00
64987;DHT22;67903;52.108;9.358;2023-04-25T11:43:29;9.60;49.60
64987;DHT22;67903;52.108;9.358;2023-04-25T11:46:16;9.70;49.90
64987;DHT22;67903;52.108;9.358;2023-04-25T11:49:04;9.50;50.30
64987;DHT22;67903;52.108;9.358;2023-04-25T11:51:51;9.20;50.30
64987;DHT22;67903;52.108;9.358;2023-04-25T11:54:38;9.00;50.30
64987;DHT22;67903;52.108;9.358;2023-04-25T11:57:25;9.00;50.50
64987;DHT22;67903;52.108;9.358;2023-04-25T12:00:17;9.00;51.30
64987;DHT22;67903;52.108;9.358;2023-04-25T12:03:09;9.10;51.50
64987;DHT22;67903;52.108;9.358;2023-04-25T12:06:02;8.90;50.70
64987;DHT22;67903;52.108;9.358;2023-04-25T12:11:49;9.00;51.40
64987;DHT22;67903;52.108;9.358;2023-04-25T12:14:39;9.10;50.70
64987;DHT22;67903;52.108;9.358;2023-04-25T12:17:28;9.20;51.20
64987;DHT22;67903;52.108;9.358;2023-04-25T12:20:18;9.30;51.20
64987;DHT22;67903;52.108;9.358;2023-04-25T12:23:07;9.40;51.20
64987;DHT22;67903;52.108;9.358;2023-04-25T12:25:58;9.60;49.50
64987;DHT22;67903;52.108;9.358;2023-04-25T12:28:45;9.60;49.90
64987;DHT22;67903;52.108;9.358;2023-04-25T12:31:34;9.60;49.70
64987;DHT22;67903;52.108;9.358;2023-04-25T12:34:22;9.70;49.40
64987;DHT22;67903;52.108;9.358;2023-04-25T12:37:09;10.10;48.60
64987;DHT22;67903;52.108;9.358;2023-04-25T12:39:57;10.00;48.30
64987;DHT22;67903;52.108;9.358;2023-04-25T12:42:44;10.00;47.20
64987;DHT22;67903;52.108;9.358;2023-04-25T12:45:31;10.20;46.70
64987;DHT22;67903;52.108;9.358;2023-04-25T12:48:18;10.40;47.10
64987;DHT22;67903;52.108;9.358;2023-04-25T12:51:05;10.40;46.20
64987;DHT22;67903;52.108;9.358;2023-04-25T12:53:53;10.30;46.60
64987;DHT22;67903;52.108;9.358;2023-04-25T12:56:41;10.20;45.90
64987;DHT22;67903;52.108;9.358;2023-04-25T12:59:28;10.20;46.30
64987;DHT22;67903;52.108;9.358;2023-04-25T13:02:15;10.40;47.00
64987;DHT22;67903;52.108;9.358;2023-04-25T13:05:03;10.40;46.40
64987;DHT22;67903;52.108;9.358;2023-04-25T13:07:50;11.00;46.00
64987;DHT22;67903;52.108;9.358;2023-04-25T13:10:38;11.00;45.90
64987;DHT22;67903;52.108;9.358;2023-04-25T13:13:26;11.00;46.40
64987;DHT22;67903;52.108;9.358;2023-04-25T13:16:14;11.00;45.90
64987;DHT22;67903;52.108;9.358;2023-04-25T13:19:01;10.70;46.40
64987;DHT22;67903;52.108;9.358;2023-04-25T13:21:48;10.50;46.80
64987;DHT22;67903;52.108;9.358;2023-04-25T13:24:35;10.40;47.20
64987;DHT22;67903;52.108;9.358;2023-04-25T13:27:22;10.30;47.00
64987;DHT22;67903;52.108;9.358;2023-04-25T13:30:09;10.50;48.20
64987;DHT22;67903;52.108;9.358;2023-04-25T13:32:57;10.80;47.90
64987;DHT22;67903;52.108;9.358;2023-04-25T13:35:49;10.60;45.90
64987;DHT22;67903;52.108;9.358;2023-04-25T13:38:40;10.70;45.80
64987;DHT22;67903;52.108;9.358;2023-04-25T13:41:30;10.80;45.00
64987;DHT22;67903;52.108;9.358;2023-04-25T13:44:17;10.70;45.70
64987;DHT22;67903;52.108;9.358;2023-04-25T13:47:04;10.40;46.10
64987;DHT22;67903;52.108;9.358;2023-04-25T13:49:51;10.30;46.60
64987;DHT22;67903;52.108;9.358;2023-04-25T13:52:39;10.50;47.30
64987;DHT22;67903;52.108;9.358;2023-04-25T13:55:26;10.80;47.50
64987;DHT22;67903;52.108;9.358;2023-04-25T13:58:13;10.60;46.40
64987;DHT22;67903;52.108;9.358;2023-04-25T14:01:00;10.50;47.60
64987;DHT22;67903;52.108;9.358;2023-04-25T14:03:47;10.60;47.50
64987;DHT22;67903;52.108;9.358;2023-04-25T14:06:35;10.70;46.10
64987;DHT22;67903;52.108;9.358;2023-04-25T14:09:22;10.50;45.10
64987;DHT22;67903;52.108;9.358;2023-04-25T14:12:12;10.60;45.80
64987;DHT22;67903;52.108;9.358;2023-04-25T14:14:59;10.50;46.20
64987;DHT22;67903;52.108;9.358;2023-04-25T14:17:47;11.00;46.40
64987;DHT22;67903;52.108;9.358;2023-04-25T14:20:35;10.90;47.00
64987;DHT22;67903;52.108;9.358;2023-04-25T14:23:22;10.90;47.70
64987;DHT22;67903;52.108;9.358;2023-04-25T14:26:09;10.60;47.70
64987;DHT22;67903;52.108;9.358;2023-04-25T14:28:59;10.50;48.60
64987;DHT22;67903;52.108;9.358;2023-04-25T14:31:46;10.40;49.30
64987;DHT22;67903;52.108;9.358;2023-04-25T14:34:33;10.20;50.00
64987;DHT22;67903;52.108;9.358;2023-04-25T14:37:20;10.20;51.00
64987;DHT22;67903;52.108;9.358;2023-04-25T14:40:08;9.60;52.70
64987;DHT22;67903;52.108;9.358;2023-04-25T14:42:57;9.50;54.20
64987;DHT22;67903;52.108;9.358;2023-04-25T14:45:44;9.40;54.50
64987;DHT22;67903;52.108;9.358;2023-04-25T14:48:32;9.40;54.50
64987;DHT22;67903;52.108;9.358;2023-04-25T14:51:19;10.40;51.80
64987;DHT22;67903;52.108;9.358;2023-04-25T14:54:06;10.50;51.20
64987;DHT22;67903;52.108;9.358;2023-04-25T14:56:54;11.50;50.80
64987;DHT22;67903;52.108;9.358;2023-04-25T14:59:41;13.30;46.60
64987;DHT22;67903;52.108;9.358;2023-04-25T15:02:28;14.10;45.60
64987;DHT22;67903;52.108;9.358;2023-04-25T15:05:15;14.80;44.30
64987;DHT22;67903;52.108;9.358;2023-04-25T15:08:03;15.40;43.20
64987;DHT22;67903;52.108;9.358;2023-04-25T15:10:50;14.60;43.90
64987;DHT22;67903;52.108;9.358;2023-04-25T15:13:37;14.20;45.40
64987;DHT22;67903;52.108;9.358;2023-04-25T15:16:24;12.90;45.40
64987;DHT22;67903;52.108;9.358;2023-04-25T15:19:12;11.50;48.60
64987;DHT22;67903;52.108;9.358;2023-04-25T15:21:59;10.90;49.20
64987;DHT22;67903;52.108;9.358;2023-04-25T15:24:48;11.00;49.10
64987;DHT22;67903;52.108;9.358;2023-04-25T15:27:36;12.10;48.20
64987;DHT22;67903;52.108;9.358;2023-04-25T15:30:26;13.90;43.70
64987;DHT22;67903;52.108;9.358;2023-04-25T15:33:14;14.90;42.20
64987;DHT22;67903;52.108;9.358;2023-04-25T15:36:01;14.60;42.30
64987;DHT22;67903;52.108;9.358;2023-04-25T15:38:50;13.30;44.30
64987;DHT22;67903;52.108;9.358;2023-04-25T15:41:37;12.50;45.10
64987;DHT22;67903;52.108;9.358;2023-04-25T15:44:24;11.30;46.90
64987;DHT22;67903;52.108;9.358;2023-04-25T15:47:11;10.70;47.50
64987;DHT22;67903;52.108;9.358;2023-04-25T15:49:58;10.40;48.50
64987;DHT22;67903;52.108;9.358;2023-04-25T15:52:47;10.00;52.00
64987;DHT22;67903;52.108;9.358;2023-04-25T15:55:34;9.30;54.90
64987;DHT22;67903;52.108;9.358;2023-04-25T15:58:22;8.80;56.20
64987;DHT22;67903;52.108;9.358;2023-04-25T16:01:10;8.50;56.90
64987;DHT22;67903;52.108;9.358;2023-04-25T16:03:58;8.40;57.90
64987;DHT22;67903;52.108;9.358;2023-04-25T16:06:45;8.10;61.80
64987;DHT22;67903;52.108;9.358;2023-04-25T16:09:32;8.00;63.20
64987;DHT22;67903;52.108;9.358;2023-04-25T16:12:20;8.00;64.10
64987;DHT22;67903;52.108;9.358;2023-04-25T16:15:07;8.00;63.10
64987;DHT22;67903;52.108;9.358;2023-04-25T16:17:55;7.90;63.70
64987;DHT22;67903;52.108;9.358;2023-04-25T16:20:42;8.00;63.60
64987;DHT22;67903;52.108;9.358;2023-04-25T16:23:29;8.10;63.20
64987;DHT22;67903;52.108;9.358;2023-04-25T16:26:17;8.50;61.80
64987;DHT22;67903;52.108;9.358;2023-04-25T16:29:04;8.90;60.80
64987;DHT22;67903;52.108;9.358;2023-04-25T16:31:52;9.30;61.30
64987;DHT22;67903;52.108;9.358;2023-04-25T16:34:39;10.90;57.20
64987;DHT22;67903;52.108;9.358;2023-04-25T16:37:27;12.50;52.30
64987;DHT22;67903;52.108;9.358;2023-04-25T16:40:14;12.90;50.40
64987;DHT22;67903;52.108;9.358;2023-04-25T16:43:01;12.30;50.20
64987;DHT22;67903;52.108;9.358;2023-04-25T16:45:48;11.90;51.00
64987;DHT22;67903;52.108;9.358;2023-04-25T16:48:35;11.20;51.90
64987;DHT22;67903;52.108;9.358;2023-04-25T16:51:22;10.80;51.90
64987;DHT22;67903;52.108;9.358;2023-04-25T16:54:09;10.50;53.00
64987;DHT22;67903;52.108;9.358;2023-04-25T16:56:56;10.00;52.70
64987;DHT22;67903;52.108;9.358;2023-04-25T16:59:44;9.50;54.00
64987;DHT22;67903;52.108;9.358;2023-04-25T17:02:31;9.00;55.10
64987;DHT22;67903;52.108;9.358;2023-04-25T17:05:19;8.90;55.50
64987;DHT22;67903;52.108;9.358;2023-04-25T17:08:06;8.50;56.10
64987;DHT22;67903;52.108;9.358;2023-04-25T17:10:53;8.30;57.00
64987;DHT22;67903;52.108;9.358;2023-04-25T17:13:40;8.00;56.80
64987;DHT22;67903;52.108;9.358;2023-04-25T17:16:34;7.80;57.90
64987;DHT22;67903;52.108;9.358;2023-04-25T17:19:22;7.80;59.80
64987;DHT22;67903;52.108;9.358;2023-04-25T17:22:09;7.50;60.20
64987;DHT22;67903;52.108;9.358;2023-04-25T17:24:56;7.50;60.70
64987;DHT22;67903;52.108;9.358;2023-04-25T17:27:44;7.60;61.00
64987;DHT22;67903;52.108;9.358;2023-04-25T17:30:31;7.60;60.70
64987;DHT22;67903;52.108;9.358;2023-04-25T17:33:18;7.60;60.00
64987;DHT22;67903;52.108;9.358;2023-04-25T17:36:06;7.50;60.00
64987;DHT22;67903;52.108;9.358;2023-04-25T17:38:53;7.50;60.20
64987;DHT22;67903;52.108;9.358;2023-04-25T17:41:40;7.40;60.80
64987;DHT22;67903;52.108;9.358;2023-04-25T17:44:27;7.50;60.30
64987;DHT22;67903;52.108;9.358;2023-04-25T17:47:15;7.40;61.20
64987;DHT22;67903;52.108;9.358;2023-04-25T17:50:02;7.50;61.20
64987;DHT22;67903;52.108;9.358;2023-04-25T17:52:50;7.50;60.90
64987;DHT22;67903;52.108;9.358;2023-04-25T17:55:37;7.40;61.20
64987;DHT22;67903;52.108;9.358;2023-04-25T17:58:26;7.40;61.60
64987;DHT22;67903;52.108;9.358;2023-04-25T18:01:13;7.50;61.70
64987;DHT22;67903;52.108;9.358;2023-04-25T18:04:00;7.40;62.30
64987;DHT22;67903;52.108;9.358;2023-04-25T18:06:49;7.40;62.50
64987;DHT22;67903;52.108;9.358;2023-04-25T18:09:37;7.40;62.60
64987;DHT22;67903;52.108;9.358;2023-04-25T18:12:24;7.40;62.30